createdAt,value
2023-05-18T00:02:21.599Z,99600.88
2023-05-18T00:04:48.704Z,99596.59
2023-05-18T00:07:15.638Z,99594.91
2023-05-18T00:09:42.567Z,99591.75
2023-05-18T00:12:12.839Z,99583.06
2023-05-18T00:14:39.885Z,99593.34
2023-05-18T00:17:07.096Z,99581.47
2023-05-18T00:19:33.946Z,99590.81
2023-05-18T00:22:02.222Z,99590.06
2023-05-18T00:24:29.118Z,99580.09
2023-05-18T00:26:56.092Z,99588.59
2023-05-18T00:29:22.958Z,99563.25
2023-05-18T00:31:50.005Z,99580.25
2023-05-18T00:34:17.364Z,99580.97
2023-05-18T00:36:44.428Z,99578.56
2023-05-18T00:39:11.383Z,99570.19
2023-05-18T00:41:38.741Z,99575.25
2023-05-18T00:44:06.244Z,99581.34
2023-05-18T00:46:33.680Z,99582.44
2023-05-18T00:49:03.972Z,99569.59
2023-05-18T00:51:33.290Z,99590.97
2023-05-18T00:54:02.421Z,99572.31
2023-05-18T00:56:34.272Z,99580.81
2023-05-18T00:59:03.305Z,99582.81
2023-05-18T01:01:36.537Z,99581.03
2023-05-18T01:04:04.612Z,99567.66
2023-05-18T01:06:35.984Z,99585.66
2023-05-18T01:09:07.048Z,99578.84
2023-05-18T01:11:58.440Z,99566.97
2023-05-18T01:14:39.191Z,99568.50
2023-05-18T01:17:33.586Z,99577.16
2023-05-18T01:20:38.054Z,99550.88
2023-05-18T01:23:35.569Z,99573.13
2023-05-18T01:26:29.983Z,99574.16
2023-05-18T01:29:00.407Z,99565.66
2023-05-18T01:31:29.060Z,99562.44
2023-05-18T01:33:55.935Z,99568.47
2023-05-18T01:36:22.761Z,99587.25
2023-05-18T01:38:50.514Z,99578.75
2023-05-18T01:41:23.602Z,99584.78
2023-05-18T01:44:12.519Z,99557.66
2023-05-18T01:47:14.464Z,99572.84
2023-05-18T01:50:02.331Z,99566.09
2023-05-18T01:52:37.739Z,99567.78
2023-05-18T01:55:06.911Z,99569.56
2023-05-18T01:57:36.620Z,99567.94
2023-05-18T02:00:07.899Z,99569.78
2023-05-18T02:02:36.161Z,99571.63
2023-05-18T02:05:05.080Z,99560.53
2023-05-18T02:07:31.962Z,99563.91
2023-05-18T02:09:58.910Z,99570.00
2023-05-18T02:12:26.080Z,99562.31
2023-05-18T02:14:53.034Z,99561.63
2023-05-18T02:17:19.937Z,99547.06
2023-05-18T02:19:46.958Z,99556.50
2023-05-18T02:22:14.342Z,99553.22
2023-05-18T02:24:42.418Z,99551.44
2023-05-18T02:27:09.360Z,99556.75
2023-05-18T02:29:36.299Z,99547.22
2023-05-18T02:32:03.463Z,99554.16
2023-05-18T02:34:32.437Z,99541.41
2023-05-18T02:37:03.796Z,99549.09
2023-05-18T02:39:31.449Z,99548.34
2023-05-18T02:41:58.425Z,99546.75
2023-05-18T02:44:25.301Z,99540.75
2023-05-18T02:46:52.248Z,99543.41
2023-05-18T02:49:19.186Z,99544.31
2023-05-18T02:51:46.072Z,99539.53
2023-05-18T02:54:13.063Z,99539.41
2023-05-18T02:56:41.560Z,99531.69
2023-05-18T02:59:08.975Z,99519.06
2023-05-18T03:01:37.697Z,99534.47
2023-05-18T03:04:05.971Z,99518.38
2023-05-18T03:06:32.881Z,99529.47
2023-05-18T03:08:59.795Z,99521.13
2023-05-18T03:11:27.842Z,99524.63
2023-05-18T03:13:54.917Z,99512.69
2023-05-18T03:16:21.954Z,99537.47
2023-05-18T03:18:48.847Z,99530.59
2023-05-18T03:21:16.619Z,99535.75
2023-05-18T03:23:44.269Z,99535.75
2023-05-18T03:26:12.385Z,99530.66
2023-05-18T03:28:40.614Z,99534.13
2023-05-18T03:31:08.913Z,99523.97
2023-05-18T03:33:36.078Z,99526.56
2023-05-18T03:36:04.822Z,99535.09
2023-05-18T03:38:31.731Z,99536.13
2023-05-18T03:40:58.681Z,99537.94
2023-05-18T03:43:26.000Z,99545.63
2023-05-18T03:45:53.520Z,99534.59
2023-05-18T03:48:21.617Z,99550.03
2023-05-18T03:50:48.905Z,99539.81
2023-05-18T03:53:19.370Z,99535.66
2023-05-18T03:55:46.911Z,99550.94
2023-05-18T03:58:13.752Z,99547.66
2023-05-18T04:00:40.903Z,99534.09
2023-05-18T04:03:07.853Z,99544.22
2023-05-18T04:05:34.881Z,99539.13
2023-05-18T04:08:02.030Z,99545.06
2023-05-18T04:10:28.844Z,99544.28
2023-05-18T04:12:55.851Z,99537.56
2023-05-18T04:15:22.899Z,99555.44
2023-05-18T04:17:51.990Z,99559.75
2023-05-18T04:20:19.283Z,99558.88
2023-05-18T04:22:48.387Z,99565.72
2023-05-18T04:25:16.410Z,99563.22
2023-05-18T04:27:49.785Z,99564.88
2023-05-18T04:30:18.693Z,99554.78
2023-05-18T04:32:45.673Z,99572.59
2023-05-18T04:35:12.670Z,99567.63
2023-05-18T04:37:43.223Z,99576.78
2023-05-18T04:40:14.489Z,99578.53
2023-05-18T04:42:48.431Z,99570.78
2023-05-18T04:45:20.489Z,99571.59
2023-05-18T04:47:53.109Z,99575.13
2023-05-18T04:50:21.475Z,99575.13
2023-05-18T04:52:50.582Z,99576.78
2023-05-18T04:55:23.192Z,99579.34
2023-05-18T04:57:53.839Z,99570.00
2023-05-18T05:00:21.099Z,99577.50
2023-05-18T05:02:48.067Z,99575.78
2023-05-18T05:05:15.133Z,99559.84
2023-05-18T05:07:42.005Z,99564.75
2023-05-18T05:10:09.783Z,99569.00
2023-05-18T05:12:40.445Z,99581.75
2023-05-18T05:15:19.341Z,99575.88
2023-05-18T05:18:02.640Z,99576.41
2023-05-18T05:20:31.604Z,99578.06
2023-05-18T05:22:59.154Z,99571.13
2023-05-18T05:25:26.083Z,99569.31
2023-05-18T05:27:53.085Z,99574.47
2023-05-18T05:30:19.936Z,99573.59
2023-05-18T05:32:46.992Z,99565.81
2023-05-18T05:35:13.994Z,99571.69
2023-05-18T05:37:40.975Z,99570.97
2023-05-18T05:40:13.583Z,99572.53
2023-05-18T05:42:41.997Z,99579.41
2023-05-18T05:45:14.564Z,99566.41
2023-05-18T05:47:45.543Z,99579.97
2023-05-18T05:50:12.494Z,99554.41
2023-05-18T05:52:39.379Z,99575.41
2023-05-18T05:55:06.830Z,99564.97
2023-05-18T05:57:33.661Z,99567.50
2023-05-18T06:00:01.821Z,99581.16
2023-05-18T06:02:32.128Z,99563.38
2023-05-18T06:04:59.110Z,99562.53
2023-05-18T06:07:28.237Z,99581.00
2023-05-18T06:09:56.889Z,99576.53
2023-05-18T06:12:23.830Z,99572.06
2023-05-18T06:14:54.297Z,99579.59
2023-05-18T06:17:21.338Z,99567.38
2023-05-18T06:19:48.517Z,99560.72
2023-05-18T06:22:15.564Z,99569.78
2023-05-18T06:24:43.826Z,99572.16
2023-05-18T06:27:11.553Z,99574.59
2023-05-18T06:29:38.707Z,99576.13
2023-05-18T06:32:06.710Z,99569.09
2023-05-18T06:34:33.660Z,99565.47
2023-05-18T06:37:01.703Z,99562.78
2023-05-18T06:39:28.818Z,99563.59
2023-05-18T06:41:56.670Z,99562.66
2023-05-18T06:44:23.640Z,99555.72
2023-05-18T06:46:50.834Z,99569.88
2023-05-18T06:49:17.799Z,99547.59
2023-05-18T06:51:46.244Z,99562.69
2023-05-18T06:54:14.874Z,99566.13
2023-05-18T06:56:41.753Z,99556.59
2023-05-18T06:59:08.704Z,99563.16
2023-05-18T07:01:36.813Z,99565.63
2023-05-18T07:04:04.105Z,99556.28
2023-05-18T07:06:31.327Z,99567.03
2023-05-18T07:08:58.170Z,99564.28
2023-05-18T07:11:25.879Z,99559.91
2023-05-18T07:13:54.340Z,99564.97
2023-05-18T07:16:21.489Z,99563.78
2023-05-18T07:18:48.464Z,99540.00
2023-05-18T07:21:16.576Z,99563.50
2023-05-18T07:23:44.000Z,99565.19
2023-05-18T07:26:12.063Z,99549.63
2023-05-18T07:28:39.537Z,99542.75
2023-05-18T07:31:06.672Z,99553.56
2023-05-18T07:33:33.590Z,99563.78
2023-05-18T07:36:00.487Z,99555.63
2023-05-18T07:38:28.301Z,99557.81
2023-05-18T07:40:55.283Z,99556.84
2023-05-18T07:43:22.164Z,99549.66
2023-05-18T07:45:49.083Z,99541.09
2023-05-18T07:48:16.281Z,99539.25
2023-05-18T07:50:43.442Z,99530.47
2023-05-18T07:53:10.332Z,99512.03
2023-05-18T07:55:37.341Z,99530.13
2023-05-18T07:58:04.711Z,99532.16
2023-05-18T08:00:31.791Z,99531.16
2023-05-18T08:03:01.160Z,99531.16
2023-05-18T08:05:28.644Z,99522.56
2023-05-18T08:07:56.742Z,99520.56
2023-05-18T08:10:23.731Z,99516.91
2023-05-18T08:12:50.848Z,99530.16
2023-05-18T08:15:17.773Z,99527.41
2023-05-18T08:17:44.738Z,99533.28
2023-05-18T08:20:12.382Z,99516.13
2023-05-18T08:22:39.223Z,99522.56
2023-05-18T08:25:07.549Z,99527.50
2023-05-18T08:27:34.649Z,99507.84
2023-05-18T08:30:01.702Z,99514.19
2023-05-18T08:32:28.599Z,99511.53
2023-05-18T08:34:55.774Z,99497.69
2023-05-18T08:37:29.050Z,99507.38
2023-05-18T08:39:56.342Z,99512.19
2023-05-18T08:42:48.504Z,99502.91
2023-05-18T08:45:42.723Z,99514.50
2023-05-18T08:48:11.653Z,99496.31
2023-05-18T08:50:43.063Z,99483.72
2023-05-18T08:53:11.818Z,99483.34
2023-05-18T08:55:40.433Z,99501.53
2023-05-18T08:58:09.484Z,99498.75
2023-05-18T09:00:37.506Z,99488.22
2023-05-18T09:03:08.501Z,99490.41
2023-05-18T09:05:36.436Z,99499.56
2023-05-18T09:08:03.847Z,99503.72
2023-05-18T09:10:33.797Z,99498.38
2023-05-18T09:13:01.497Z,99499.16
2023-05-18T09:15:29.363Z,99494.59
2023-05-18T09:17:56.394Z,99496.75
2023-05-18T09:20:25.812Z,99489.59
2023-05-18T09:22:53.172Z,99477.66
2023-05-18T09:25:21.649Z,99496.47
2023-05-18T09:27:49.368Z,99494.63
2023-05-18T09:30:16.272Z,99487.78
2023-05-18T09:32:48.519Z,99489.94
2023-05-18T09:35:16.022Z,99470.13
2023-05-18T09:37:43.506Z,99487.69
2023-05-18T09:40:11.046Z,99478.13
2023-05-18T09:42:40.693Z,99496.56
2023-05-18T09:45:24.105Z,99496.44
2023-05-18T09:47:51.804Z,99491.25
2023-05-18T09:50:22.984Z,99484.19
2023-05-18T09:52:50.581Z,99483.03
2023-05-18T09:55:19.734Z,99480.25
2023-05-18T09:57:49.440Z,99473.13
2023-05-18T10:00:19.329Z,99475.03
2023-05-18T10:02:49.369Z,99473.41
2023-05-18T10:05:27.709Z,99464.63
2023-05-18T10:07:55.757Z,99474.63
2023-05-18T10:10:26.137Z,99469.06
2023-05-18T10:12:55.279Z,99454.66
2023-05-18T10:15:23.978Z,99460.09
2023-05-18T10:17:57.230Z,99460.84
2023-05-18T10:20:27.968Z,99457.16
2023-05-18T10:23:05.875Z,99462.28
2023-05-18T10:25:34.124Z,99448.13
2023-05-18T10:28:08.029Z,99430.75
2023-05-18T10:30:47.691Z,99441.44
2023-05-18T10:33:28.523Z,99442.72
2023-05-18T10:35:59.606Z,99446.75
2023-05-18T10:38:31.197Z,99448.97
2023-05-18T10:41:02.109Z,99436.00
2023-05-18T10:43:30.876Z,99443.38
2023-05-18T10:46:01.166Z,99443.94
2023-05-18T10:48:30.235Z,99439.09
2023-05-18T10:50:59.208Z,99445.63
2023-05-18T10:53:30.039Z,99430.19
2023-05-18T10:55:57.124Z,99429.78
2023-05-18T10:58:31.190Z,99421.59
2023-05-18T11:01:03.331Z,99426.31
2023-05-18T11:03:33.290Z,99434.53
2023-05-18T11:06:12.798Z,99437.81
2023-05-18T11:08:47.992Z,99432.34
2023-05-18T11:11:19.865Z,99440.72
2023-05-18T11:13:54.028Z,99405.94
2023-05-18T11:16:22.362Z,99435.81
2023-05-18T11:18:52.019Z,99425.88
2023-05-18T11:21:24.891Z,99422.47
2023-05-18T11:24:14.075Z,99417.25
2023-05-18T11:26:45.079Z,99401.78
2023-05-18T11:29:36.280Z,99417.59
2023-05-18T11:32:05.703Z,99430.88
2023-05-18T11:34:47.646Z,99418.59
2023-05-18T11:37:37.140Z,99422.53
2023-05-18T11:40:33.916Z,99419.91
2023-05-18T11:43:01.230Z,99425.50
2023-05-18T11:45:28.279Z,99414.91
2023-05-18T11:48:02.062Z,99410.41
2023-05-18T11:50:31.959Z,99410.16
2023-05-18T11:53:00.993Z,99401.59
2023-05-18T11:55:39.131Z,99406.72
2023-05-18T11:58:18.917Z,99384.16
2023-05-18T12:00:48.998Z,99403.34
2023-05-18T12:03:17.882Z,99399.53
2023-05-18T12:05:49.266Z,99395.88
2023-05-18T12:08:30.064Z,99394.88
2023-05-18T12:10:58.304Z,99392.91
2023-05-18T12:13:29.467Z,99399.63
2023-05-18T12:15:59.025Z,99394.50
2023-05-18T12:18:41.349Z,99389.72
2023-05-18T12:21:22.259Z,99389.34
2023-05-18T12:23:49.534Z,99374.34
2023-05-18T12:26:19.587Z,99383.47
2023-05-18T12:28:46.584Z,99386.44
2023-05-18T12:31:13.549Z,99391.16
2023-05-18T12:33:40.384Z,99392.28
2023-05-18T12:36:11.534Z,99386.69
2023-05-18T12:38:38.489Z,99381.34
2023-05-18T12:41:06.587Z,99387.03
2023-05-18T12:43:37.377Z,99376.19
2023-05-18T12:46:05.283Z,99379.34
2023-05-18T12:48:37.532Z,99385.59
2023-05-18T12:51:04.663Z,99381.00
2023-05-18T12:53:42.987Z,99364.06
2023-05-18T12:56:11.589Z,99373.16
2023-05-18T12:58:40.557Z,99357.47
2023-05-18T13:01:09.800Z,99367.78
2023-05-18T13:03:40.551Z,99372.78
2023-05-18T13:06:09.505Z,99380.63
2023-05-18T13:08:37.285Z,99373.00
2023-05-18T13:11:13.572Z,99365.59
2023-05-18T13:14:06.078Z,99349.78
2023-05-18T13:16:41.430Z,99360.91
2023-05-18T13:19:10.526Z,99368.22
2023-05-18T13:21:38.090Z,99361.16
2023-05-18T13:24:05.688Z,99363.34
2023-05-18T13:26:32.959Z,99369.53
2023-05-18T13:29:00.313Z,99363.16
2023-05-18T13:31:29.353Z,99359.28
2023-05-18T13:33:56.258Z,99344.72
2023-05-18T13:36:23.522Z,99354.97
2023-05-18T13:38:52.110Z,99343.69
2023-05-18T13:41:19.053Z,99347.16
2023-05-18T13:43:45.916Z,99337.94
2023-05-18T13:46:13.487Z,99328.53
2023-05-18T13:48:40.396Z,99342.75
2023-05-18T13:51:07.338Z,99335.03
2023-05-18T13:53:34.207Z,99327.28
2023-05-18T13:56:01.062Z,99336.16
2023-05-18T13:58:27.887Z,99333.75
2023-05-18T14:00:55.323Z,99330.09
2023-05-18T14:03:22.564Z,99330.09
2023-05-18T14:05:49.750Z,99327.47
2023-05-18T14:08:16.635Z,99328.09
2023-05-18T14:10:43.533Z,99305.59
2023-05-18T14:13:10.489Z,99317.22
2023-05-18T14:15:37.395Z,99303.72
2023-05-18T14:18:04.453Z,99328.97
2023-05-18T14:20:31.659Z,99321.13
2023-05-18T14:22:58.884Z,99326.13
2023-05-18T14:25:26.418Z,99318.16
2023-05-18T14:27:53.513Z,99316.06
2023-05-18T14:30:22.466Z,99318.81
2023-05-18T14:32:49.609Z,99318.81
2023-05-18T14:35:16.666Z,99314.09
2023-05-18T14:37:44.033Z,99323.38
2023-05-18T14:40:11.376Z,99315.34
2023-05-18T14:42:38.703Z,99313.78
2023-05-18T14:45:06.494Z,99304.97
2023-05-18T14:47:33.439Z,99316.19
2023-05-18T14:50:00.699Z,99317.44
2023-05-18T14:52:27.648Z,99313.75
2023-05-18T14:54:54.755Z,99320.66
2023-05-18T14:57:21.778Z,99325.03
2023-05-18T14:59:48.841Z,99313.94
2023-05-18T15:02:16.347Z,99332.69
2023-05-18T15:04:43.561Z,99330.25
2023-05-18T15:07:10.595Z,99321.56
2023-05-18T15:09:38.713Z,99329.63
2023-05-18T15:12:06.136Z,99333.06
2023-05-18T15:14:33.145Z,99320.41
2023-05-18T15:17:00.281Z,99327.41
2023-05-18T15:19:27.275Z,99329.28
2023-05-18T15:21:55.668Z,99326.47
2023-05-18T15:24:22.724Z,99333.16
2023-05-18T15:26:49.819Z,99318.09
2023-05-18T15:29:16.894Z,99322.06
2023-05-18T15:31:47.004Z,99326.38
2023-05-18T15:34:15.421Z,99292.03
2023-05-18T15:36:42.541Z,99312.22
2023-05-18T15:39:09.700Z,99323.59
2023-05-18T15:41:36.740Z,99331.06
2023-05-18T15:44:03.987Z,99325.59
2023-05-18T15:46:33.103Z,99333.03
2023-05-18T15:49:00.113Z,99318.25
2023-05-18T15:51:27.351Z,99334.38
2023-05-18T15:53:55.641Z,99329.16
2023-05-18T15:56:24.017Z,99333.44
2023-05-18T15:58:51.593Z,99328.41
2023-05-18T16:01:18.583Z,99322.00
2023-05-18T16:03:46.048Z,99330.38
2023-05-18T16:06:13.250Z,99320.78
2023-05-18T16:08:40.124Z,99313.25
2023-05-18T16:11:07.139Z,99316.47
2023-05-18T16:13:34.125Z,99308.09
2023-05-18T16:16:01.392Z,99309.88
2023-05-18T16:18:29.386Z,99313.25
2023-05-18T16:20:57.357Z,99319.28
2023-05-18T16:23:24.555Z,99320.13
2023-05-18T16:25:51.666Z,99317.63
2023-05-18T16:28:18.704Z,99315.84
2023-05-18T16:30:47.651Z,99319.50
2023-05-18T16:33:15.966Z,99316.13
2023-05-18T16:35:42.929Z,99317.81
2023-05-18T16:38:10.121Z,99311.13
2023-05-18T16:40:37.231Z,99314.47
2023-05-18T16:43:04.333Z,99322.31
2023-05-18T16:45:31.297Z,99306.22
2023-05-18T16:47:58.444Z,99319.69
2023-05-18T16:50:27.858Z,99326.78
2023-05-18T16:52:55.036Z,99317.75
2023-05-18T16:55:23.878Z,99328.63
2023-05-18T16:57:51.481Z,99323.28
2023-05-18T17:00:20.829Z,99317.84
2023-05-18T17:02:48.916Z,99331.34
2023-05-18T17:05:21.636Z,99333.84
2023-05-18T17:07:49.984Z,99333.31
2023-05-18T17:10:17.234Z,99331.34
2023-05-18T17:12:44.785Z,99320.66
2023-05-18T17:15:15.038Z,99332.47
2023-05-18T17:17:42.892Z,99324.19
2023-05-18T17:20:13.184Z,99334.38
2023-05-18T17:22:40.123Z,99342.09
2023-05-18T17:25:08.449Z,99339.50
2023-05-18T17:27:36.549Z,99341.34
2023-05-18T17:30:03.844Z,99335.38
2023-05-18T17:32:30.974Z,99341.34
2023-05-18T17:34:58.241Z,99334.63
2023-05-18T17:37:25.316Z,99335.94
2023-05-18T17:39:52.339Z,99336.88
2023-05-18T17:42:19.665Z,99344.72
2023-05-18T17:44:47.444Z,99341.34
2023-05-18T17:47:14.789Z,99342.28
2023-05-18T17:49:41.943Z,99346.69
2023-05-18T17:52:08.851Z,99343.22
2023-05-18T17:54:35.866Z,99346.78
2023-05-18T17:57:02.910Z,99347.59
2023-05-18T17:59:30.459Z,99352.00
2023-05-18T18:01:57.601Z,99311.94
2023-05-18T18:04:24.842Z,99342.88
2023-05-18T18:06:54.371Z,99348.91
2023-05-18T18:09:22.179Z,99349.88
2023-05-18T18:11:49.408Z,99346.41
2023-05-18T18:14:17.394Z,99354.25
2023-05-18T18:16:44.831Z,99348.28
2023-05-18T18:19:12.215Z,99345.97
2023-05-18T18:21:39.270Z,99343.91
2023-05-18T18:24:06.576Z,99342.50
2023-05-18T18:26:38.660Z,99348.69
2023-05-18T18:29:06.194Z,99343.44
2023-05-18T18:31:35.052Z,99327.81
2023-05-18T18:34:02.216Z,99350.63
2023-05-18T18:36:29.357Z,99347.94
2023-05-18T18:38:56.722Z,99355.13
2023-05-18T18:41:24.805Z,99355.22
2023-05-18T18:43:54.177Z,99357.94
2023-05-18T18:46:21.690Z,99362.31
2023-05-18T18:48:48.768Z,99352.34
2023-05-18T18:51:15.730Z,99368.47
2023-05-18T18:53:42.829Z,99369.38
2023-05-18T18:56:10.152Z,99370.34
2023-05-18T18:58:37.675Z,99371.44
2023-05-18T19:01:04.994Z,99375.00
2023-05-18T19:03:32.924Z,99382.09
2023-05-18T19:06:00.916Z,99369.31
2023-05-18T19:08:27.880Z,99380.41
2023-05-18T19:10:55.792Z,99385.75
2023-05-18T19:13:23.149Z,99378.91
2023-05-18T19:15:51.263Z,99387.69
2023-05-18T19:18:18.692Z,99386.09
2023-05-18T19:20:45.726Z,99380.44
2023-05-18T19:23:12.580Z,99394.97
2023-05-18T19:25:39.995Z,99395.13
2023-05-18T19:28:06.988Z,99397.69
2023-05-18T19:30:33.867Z,99409.13
2023-05-18T19:33:01.074Z,99404.09
2023-05-18T19:35:28.044Z,99404.31
2023-05-18T19:37:55.052Z,99412.13
2023-05-18T19:40:22.561Z,99417.34
2023-05-18T19:42:50.187Z,99403.34
2023-05-18T19:45:17.217Z,99408.03
2023-05-18T19:47:44.179Z,99413.25
2023-05-18T19:50:11.552Z,99413.59
2023-05-18T19:52:38.415Z,99419.56
2023-05-18T19:55:05.880Z,99423.13
2023-05-18T19:57:33.069Z,99419.75
2023-05-18T19:59:59.906Z,99428.59
2023-05-18T20:02:26.774Z,99429.63
2023-05-18T20:04:53.800Z,99435.03
2023-05-18T20:07:22.358Z,99432.53
2023-05-18T20:09:49.336Z,99433.44
2023-05-18T20:12:16.243Z,99441.16
2023-05-18T20:14:43.444Z,99434.28
2023-05-18T20:17:10.345Z,99434.47
2023-05-18T20:19:37.760Z,99439.69
2023-05-18T20:22:05.084Z,99428.69
2023-05-18T20:24:32.626Z,99443.31
2023-05-18T20:26:59.607Z,99434.81
2023-05-18T20:29:26.515Z,99433.16
2023-05-18T20:31:54.745Z,99439.47
2023-05-18T20:34:21.749Z,99435.94
2023-05-18T20:36:48.565Z,99441.22
2023-05-18T20:39:15.435Z,99441.31
2023-05-18T20:41:42.300Z,99445.03
2023-05-18T20:44:11.104Z,99427.19
2023-05-18T20:46:42.206Z,99443.50
2023-05-18T20:49:12.069Z,99430.81
2023-05-18T20:51:39.007Z,99435.13
2023-05-18T20:54:05.839Z,99429.22
2023-05-18T20:56:33.789Z,99425.78
2023-05-18T20:59:00.688Z,99431.09
2023-05-18T21:01:28.766Z,99433.13
2023-05-18T21:03:59.302Z,99413.63
2023-05-18T21:06:26.556Z,99440.84
2023-05-18T21:08:53.514Z,99436.75
2023-05-18T21:11:21.113Z,99427.75
2023-05-18T21:13:48.302Z,99438.75
2023-05-18T21:16:15.222Z,99432.97
2023-05-18T21:18:42.493Z,99434.41
2023-05-18T21:21:09.514Z,99426.09
2023-05-18T21:23:36.510Z,99425.91
2023-05-18T21:26:03.357Z,99427.59
2023-05-18T21:28:30.287Z,99429.28
2023-05-18T21:30:57.182Z,99420.69
2023-05-18T21:33:24.623Z,99419.88
2023-05-18T21:35:51.601Z,99433.72
2023-05-18T21:38:18.447Z,99427.03
2023-05-18T21:40:46.642Z,99441.72
2023-05-18T21:43:13.485Z,99442.59
2023-05-18T21:45:40.828Z,99424.19
2023-05-18T21:48:08.304Z,99426.59
2023-05-18T21:50:35.605Z,99431.66
2023-05-18T21:53:03.236Z,99432.56
2023-05-18T21:55:33.323Z,99424.75
2023-05-18T21:58:00.539Z,99424.09
2023-05-18T22:00:28.420Z,99425.13
2023-05-18T22:02:55.542Z,99431.16
2023-05-18T22:05:22.453Z,99425.28
2023-05-18T22:07:49.610Z,99426.13
2023-05-18T22:10:18.031Z,99392.72
2023-05-18T22:12:45.293Z,99409.31
2023-05-18T22:15:12.411Z,99421.09
2023-05-18T22:17:40.061Z,99432.34
2023-05-18T22:20:11.295Z,99430.66
2023-05-18T22:22:40.240Z,99428.31
2023-05-18T22:25:07.759Z,99425.63
2023-05-18T22:27:36.523Z,99422.25
2023-05-18T22:30:08.238Z,99422.25
2023-05-18T22:32:35.223Z,99420.59
2023-05-18T22:35:04.210Z,99422.44
2023-05-18T22:37:31.153Z,99419.75
2023-05-18T22:39:58.046Z,99412.50
2023-05-18T22:42:25.030Z,99413.69
2023-05-18T22:44:51.908Z,99411.16
2023-05-18T22:47:19.560Z,99415.72
2023-05-18T22:49:46.588Z,99417.50
2023-05-18T22:52:13.460Z,99413.09
2023-05-18T22:54:40.391Z,99409.75
2023-05-18T22:57:07.387Z,99413.09
2023-05-18T22:59:35.278Z,99414.03
2023-05-18T23:02:02.095Z,99419.34
2023-05-18T23:04:28.902Z,99417.50
2023-05-18T23:06:56.935Z,99410.69
2023-05-18T23:09:28.422Z,99415.88
2023-05-18T23:11:55.753Z,99408.25
2023-05-18T23:14:25.614Z,99412.63
2023-05-18T23:16:53.484Z,99412.69
2023-05-18T23:19:20.571Z,99419.56
2023-05-18T23:21:47.552Z,99416.16
2023-05-18T23:24:15.344Z,99418.09
2023-05-18T23:26:43.536Z,99421.19
2023-05-18T23:29:10.814Z,99414.81
2023-05-18T23:31:38.164Z,99416.94
2023-05-18T23:34:05.611Z,99417.59
2023-05-18T23:36:35.453Z,99398.94
2023-05-18T23:39:02.683Z,99411.34
2023-05-18T23:41:31.747Z,99414.81
2023-05-18T23:43:59.302Z,99414.91
2023-05-18T23:46:26.777Z,99403.81
2023-05-18T23:48:54.132Z,99387.75
2023-05-18T23:51:21.644Z,99409.69
2023-05-18T23:53:50.584Z,99414.22
2023-05-18T23:56:18.039Z,99405.47
2023-05-18T23:58:47.000Z,99403.31
